F/V Le Natif 2 — FKVW — position and weather

sailwx.info

Track history (hours):
 
Tides and Currents Weather Stations Pressure Air Temp Water Temp Dewpoint Dewpoint Depression Visibility Wind Speed Wind Dir Waves Ship Positions

F/V Le Natif 2

Last reported at 2015-Mar-06 02:33 UTC. Time now 2015-Mar-06 09:05 UTC.
Position N 46°42' W 001°56'.

Length 16 m.

Type: Fishing. MMSI: 228131600.

Date/timePositionNaut miles runAvg speedWind from/ knotsBaromVisibWave heightAir tempDewpointWater temp
2015-Mar-06 02:33N 46°42' W 001°56'2 1.7
2015-Mar-06 01:33N 46°40' W 001°58'7 7.0
2015-Mar-06 00:33N 46°33' W 001°57'7 6.8
2015-Mar-05 23:33N 46°27' W 001°56'8 8.2
2015-Mar-05 22:33N 46°18' W 001°55'8 8.3
2015-Mar-05 21:33N 46°10' W 001°55'87 6.0
2015-Mar-05 07:09N 44°43' W 001°45'2 0.9
2015-Mar-05 04:33N 44°42' W 001°43'3 3.3
2015-Mar-05 03:33N 44°39' W 001°42'9 1.3
2015-Mar-04 20:33N 44°47' W 001°46'86 2.0
2015-Mar-03 01:29N 46°13' W 002°01'7 7.8
2015-Mar-03 00:33N 46°20' W 001°60'8 7.8
2015-Mar-02 23:33N 46°28' W 001°59'8 7.8
2015-Mar-02 22:33N 46°36' W 001°58'6 0.3
2015-Mar-01 21:33N 46°42' W 001°57'2 1.7
2015-Mar-01 20:33N 46°40' W 001°58'3 3.1
2015-Mar-01 19:34N 46°37' W 001°58'7 6.5
2015-Mar-01 18:34N 46°31' W 001°57'7 6.9
2015-Mar-01 17:34N 46°24' W 001°56'7 6.8
2015-Mar-01 16:34N 46°17' W 001°55'7 6.7
2015-Mar-01 15:33N 46°10' W 001°54'82 6.2
2015-Mar-01 02:27N 44°49' W 001°43'3 0.9
2015-Feb-28 23:22N 44°49' W 001°39'3 3.4
2015-Feb-28 22:33N 44°47' W 001°38'3 3.4
2015-Feb-28 21:33N 44°43' W 001°38'3 2.0
2015-Feb-28 20:17N 44°45' W 001°41'2 2.6
2015-Feb-28 19:34N 44°45' W 001°38'4 1.9
2015-Feb-28 17:19N 44°49' W 001°41'3 3.5
2015-Feb-28 16:33N 44°46' W 001°40'3 0.4
2015-Feb-28 08:32N 44°49' W 001°40'2 0.9
2015-Feb-28 06:30N 44°50' W 001°41'4 3.4
2015-Feb-28 05:27N 44°47' W 001°41'4 0.7
2015-Feb-27 23:28N 44°51' W 001°41'2 0.2
2015-Feb-27 15:24N 44°52' W 001°44'82 1.6
2015-Feb-25 12:33N 46°13' W 001°55'8 8.1
2015-Feb-25 11:33N 46°21' W 001°56'7 7.3
2015-Feb-25 10:33N 46°28' W 001°57'6 6.3
2015-Feb-25 09:34N 46°35' W 001°57'6 6.1
2015-Feb-25 08:32N 46°41' W 001°57'  
Track history (hours):
 
Tides and Currents Weather Stations Pressure Air Temp Water Temp Dewpoint Dewpoint Depression Visibility Wind Speed Wind Dir Waves Ship Positions

F/V Le Natif 2

Last reported at 2015-Mar-06 02:33 UTC. Time now 2015-Mar-06 09:05 UTC.
Position N 46°42' W 001°56'.

Length 16 m.

Type: Fishing. MMSI: 228131600.

Date/timePositionNaut miles runAvg speedWind from/ knotsBaromVisibWave heightAir tempDewpointWater temp
2015-Mar-06 02:33N 46°42' W 001°56'2 1.7
2015-Mar-06 01:33N 46°40' W 001°58'7 7.0
2015-Mar-06 00:33N 46°33' W 001°57'7 6.8
2015-Mar-05 23:33N 46°27' W 001°56'8 8.2
2015-Mar-05 22:33N 46°18' W 001°55'8 8.3
2015-Mar-05 21:33N 46°10' W 001°55'87 6.0
2015-Mar-05 07:09N 44°43' W 001°45'2 0.9
2015-Mar-05 04:33N 44°42' W 001°43'3 3.3
2015-Mar-05 03:33N 44°39' W 001°42'9 1.3
2015-Mar-04 20:33N 44°47' W 001°46'86 2.0
2015-Mar-03 01:29N 46°13' W 002°01'7 7.8
2015-Mar-03 00:33N 46°20' W 001°60'8 7.8
2015-Mar-02 23:33N 46°28' W 001°59'8 7.8
2015-Mar-02 22:33N 46°36' W 001°58'6 0.3
2015-Mar-01 21:33N 46°42' W 001°57'2 1.7
2015-Mar-01 20:33N 46°40' W 001°58'3 3.1
2015-Mar-01 19:34N 46°37' W 001°58'7 6.5
2015-Mar-01 18:34N 46°31' W 001°57'7 6.9
2015-Mar-01 17:34N 46°24' W 001°56'7 6.8
2015-Mar-01 16:34N 46°17' W 001°55'7 6.7
2015-Mar-01 15:33N 46°10' W 001°54'82 6.2
2015-Mar-01 02:27N 44°49' W 001°43'3 0.9
2015-Feb-28 23:22N 44°49' W 001°39'3 3.4
2015-Feb-28 22:33N 44°47' W 001°38'3 3.4
2015-Feb-28 21:33N 44°43' W 001°38'3 2.0
2015-Feb-28 20:17N 44°45' W 001°41'2 2.6
2015-Feb-28 19:34N 44°45' W 001°38'4 1.9
2015-Feb-28 17:19N 44°49' W 001°41'3 3.5
2015-Feb-28 16:33N 44°46' W 001°40'3 0.4
2015-Feb-28 08:32N 44°49' W 001°40'2 0.9
2015-Feb-28 06:30N 44°50' W 001°41'4 3.4
2015-Feb-28 05:27N 44°47' W 001°41'4 0.7
2015-Feb-27 23:28N 44°51' W 001°41'2 0.2
2015-Feb-27 15:24N 44°52' W 001°44'82 1.6
2015-Feb-25 12:33N 46°13' W 001°55'8 8.1
2015-Feb-25 11:33N 46°21' W 001°56'7 7.3
2015-Feb-25 10:33N 46°28' W 001°57'6 6.3
2015-Feb-25 09:34N 46°35' W 001°57'6 6.1
2015-Feb-25 08:32N 46°41' W 001°57'  

Dump ship's entire track history